Time;durP1;ratioP1;P1;durP2;ratioP2;P2;SDS_P1;SDS_P2;PMS_P1;PMS_P2;Temp;Humidity;BMP_temperature;BMP_pressure;BME280_temperature;BME280_humidity;BME280_pressure;Samples;Min_cycle;Max_cycle;Signal;HPM_P1;HPM_P2
2021/07/29 00:01:59;;;;;;;2.67;2.00;;;;;;;18.80;59.70;100253.38;5036148;28;20214;-80
2021/07/29 00:04:26;;;;;;;3.30;1.93;;;;;;;18.75;59.60;100244.91;5035699;28;20254;-80
2021/07/29 00:06:52;;;;;;;2.67;2.00;;;;;;;18.70;59.57;100251.63;5036216;28;20702;-80
2021/07/29 00:09:19;;;;;;;4.03;2.00;;;;;;;18.66;59.92;100252.09;5036120;28;20214;-80
2021/07/29 00:11:47;;;;;;;4.57;1.90;;;;;;;18.61;60.18;100254.44;5036249;28;20665;-80
2021/07/29 00:14:13;;;;;;;2.83;2.13;;;;;;;18.55;60.12;100246.94;5035927;28;20623;-80
2021/07/29 00:16:44;;;;;;;4.90;2.00;;;;;;;18.50;60.16;100246.53;5035574;28;20233;-80
2021/07/29 00:19:10;;;;;;;2.73;1.90;;;;;;;18.47;60.35;100246.84;5036105;28;20187;-80
2021/07/29 00:21:39;;;;;;;2.37;2.10;;;;;;;18.43;60.62;100245.50;5035670;28;20212;-80
2021/07/29 00:24:06;;;;;;;3.63;2.10;;;;;;;18.38;60.91;100240.56;5036148;28;20227;-80
2021/07/29 00:26:33;;;;;;;3.57;2.27;;;;;;;18.32;60.92;100239.34;5035777;28;20274;-80
2021/07/29 00:29:01;;;;;;;4.17;1.90;;;;;;;18.28;61.17;100240.66;5035944;28;20218;-81
2021/07/29 00:31:31;;;;;;;4.83;2.20;;;;;;;18.25;61.46;100232.06;5035697;28;20586;-80
2021/07/29 00:33:58;;;;;;;2.57;2.00;;;;;;;18.20;61.36;100227.13;5042984;28;20216;-80
2021/07/29 00:36:25;;;;;;;3.23;2.03;;;;;;;18.17;61.19;100222.03;5055823;28;20598;-81
2021/07/29 00:38:51;;;;;;;4.77;1.97;;;;;;;18.14;61.50;100219.66;5055265;28;20204;-80
2021/07/29 00:41:18;;;;;;;3.23;2.00;;;;;;;18.11;61.84;100219.09;5055240;28;20206;-81
2021/07/29 00:43:45;;;;;;;4.93;2.10;;;;;;;18.08;62.06;100217.59;5055942;28;20203;-80
2021/07/29 00:46:15;;;;;;;5.10;2.13;;;;;;;18.04;62.30;100214.38;5056767;28;20262;-80
2021/07/29 00:48:41;;;;;;;4.57;1.77;;;;;;;18.03;62.60;100214.53;5056506;28;20214;-81
2021/07/29 00:51:08;;;;;;;2.73;1.90;;;;;;;18.00;62.42;100212.97;5056785;28;20205;-80
2021/07/29 00:53:35;;;;;;;5.40;2.00;;;;;;;17.98;62.50;100206.03;5055999;28;20219;-81
2021/07/29 00:56:02;;;;;;;3.27;1.90;;;;;;;17.96;62.51;100206.19;5056463;28;20229;-81
2021/07/29 00:58:28;;;;;;;4.33;2.10;;;;;;;17.93;62.52;100195.72;5055413;28;20267;-80
2021/07/29 01:00:55;;;;;;;4.07;2.03;;;;;;;17.89;62.58;100199.75;5055084;28;20237;-80
2021/07/29 01:03:23;;;;;;;2.93;2.03;;;;;;;17.86;62.69;100205.44;5055198;28;20231;-81
2021/07/29 01:05:49;;;;;;;6.00;2.20;;;;;;;17.85;62.87;100206.44;5054844;28;20240;-80
2021/07/29 01:08:16;;;;;;;4.60;2.23;;;;;;;17.83;62.98;100204.91;5042157;28;20204;-80
2021/07/29 01:10:42;;;;;;;3.13;2.40;;;;;;;17.79;62.99;100200.81;5035030;28;20212;-80
2021/07/29 01:13:09;;;;;;;5.47;2.40;;;;;;;17.76;63.22;100198.44;5044733;28;20208;-80
2021/07/29 01:15:35;;;;;;;3.73;2.00;;;;;;;17.72;63.19;100199.75;5056083;28;20296;-80
2021/07/29 01:18:02;;;;;;;2.93;2.30;;;;;;;17.70;63.50;100202.59;5055812;28;20204;-81
2021/07/29 01:20:31;;;;;;;3.90;2.10;;;;;;;17.68;63.42;100208.16;5055959;28;20217;-80
2021/07/29 01:22:57;;;;;;;4.80;2.13;;;;;;;17.63;63.53;100199.63;5055881;28;20284;-80
2021/07/29 01:25:24;;;;;;;3.20;2.37;;;;;;;17.60;63.71;100201.78;5055775;28;20243;-80
2021/07/29 01:27:50;;;;;;;3.13;2.07;;;;;;;17.55;63.96;100196.88;5055225;28;20216;-81
2021/07/29 01:30:17;;;;;;;2.57;2.17;;;;;;;17.54;63.86;100192.50;5055110;28;20207;-80
2021/07/29 01:32:43;;;;;;;4.13;2.40;;;;;;;17.53;64.06;100203.41;5055505;28;20708;-80
2021/07/29 01:35:11;;;;;;;3.50;2.13;;;;;;;17.53;64.20;100203.41;5054897;28;20292;-80
2021/07/29 01:37:40;;;;;;;2.77;2.27;;;;;;;17.54;64.14;100202.41;5055194;28;20231;-81
2021/07/29 01:40:09;;;;;;;3.53;2.37;;;;;;;17.53;64.17;100206.09;5054608;28;20212;-80
2021/07/29 01:42:41;;;;;;;3.60;2.30;;;;;;;17.53;64.19;100209.66;5055796;28;20206;-81
2021/07/29 01:45:09;;;;;;;2.40;1.97;;;;;;;17.54;64.25;100219.41;5055711;28;20576;-80
2021/07/29 01:47:35;;;;;;;3.07;1.80;;;;;;;17.56;64.24;100213.84;5055338;28;20758;-80
2021/07/29 01:50:02;;;;;;;3.80;2.10;;;;;;;17.55;64.19;100220.25;5055107;28;20217;-80
2021/07/29 01:52:29;;;;;;;4.33;2.10;;;;;;;17.56;64.18;100243.47;5055492;28;20206;-80
2021/07/29 01:54:56;;;;;;;4.90;2.43;;;;;;;17.59;64.27;100244.00;5055625;28;20572;-80
2021/07/29 01:57:23;;;;;;;3.37;2.50;;;;;;;17.59;64.40;100235.94;5055713;28;20230;-80
2021/07/29 01:59:50;;;;;;;2.67;2.23;;;;;;;17.61;64.61;100252.78;5055008;28;20216;-80
2021/07/29 02:02:16;;;;;;;4.37;2.53;;;;;;;17.61;64.61;100241.19;5054609;28;20210;-80
2021/07/29 02:04:43;;;;;;;7.17;2.53;;;;;;;17.61;64.86;100238.47;5054804;28;20251;-80
2021/07/29 02:07:09;;;;;;;3.70;2.23;;;;;;;17.61;65.11;100241.19;5054385;28;20228;-80
2021/07/29 02:09:36;;;;;;;4.10;2.27;;;;;;;17.59;65.40;100235.94;5054453;28;20212;-81
2021/07/29 02:12:04;;;;;;;3.47;2.03;;;;;;;17.59;65.84;100238.63;5054151;28;20204;-80
2021/07/29 02:14:31;;;;;;;3.57;2.43;;;;;;;17.61;66.32;100243.88;5054472;28;20201;-81
2021/07/29 02:16:57;;;;;;;4.17;2.33;;;;;;;17.61;66.65;100239.34;5055004;28;20757;-80
2021/07/29 02:19:24;;;;;;;3.17;2.50;;;;;;;17.64;67.29;100240.91;5055044;28;20663;-81
2021/07/29 02:21:51;;;;;;;4.50;2.63;;;;;;;17.65;67.91;100235.38;5054509;28;20297;-80
2021/07/29 02:24:18;;;;;;;4.13;2.67;;;;;;;17.65;67.92;100235.38;5054351;28;20203;-80
2021/07/29 02:26:45;;;;;;;3.53;2.80;;;;;;;17.64;68.30;100246.28;5054863;28;20228;-80
2021/07/29 02:29:13;;;;;;;4.13;3.00;;;;;;;17.64;68.77;100233.69;5054651;28;20210;-80
2021/07/29 02:31:39;;;;;;;5.13;2.87;;;;;;;17.65;68.99;100237.22;5053847;28;20229;-81
2021/07/29 02:34:06;;;;;;;3.27;2.53;;;;;;;17.63;68.94;100237.34;5054428;28;20235;-80
2021/07/29 02:36:32;;;;;;;3.47;2.50;;;;;;;17.60;69.14;100243.03;5054199;28;20230;-81
2021/07/29 02:38:59;;;;;;;4.00;2.47;;;;;;;17.58;69.38;100239.63;5054362;28;20212;-80
2021/07/29 02:41:26;;;;;;;4.87;2.70;;;;;;;17.56;69.80;100244.31;5053674;28;20566;-80
2021/07/29 02:43:52;;;;;;;3.57;2.63;;;;;;;17.54;70.11;100248.19;5054003;28;20202;-81
2021/07/29 02:46:20;;;;;;;3.27;2.43;;;;;;;17.53;70.19;100235.72;5053709;28;20251;-80
2021/07/29 02:48:47;;;;;;;5.07;2.87;;;;;;;17.49;70.53;100243.25;5053526;28;20208;-80
2021/07/29 02:51:13;;;;;;;3.60;2.77;;;;;;;17.46;70.87;100229.22;5053390;28;20205;-81
2021/07/29 02:53:39;;;;;;;3.80;2.80;;;;;;;17.43;71.06;100221.47;5053928;28;20668;-80
2021/07/29 02:56:08;;;;;;;3.70;2.63;;;;;;;17.39;71.27;100211.97;5054014;28;20231;-81
2021/07/29 02:58:34;;;;;;;4.30;2.73;;;;;;;17.36;71.35;100207.78;5054193;28;20721;-81
2021/07/29 03:01:01;;;;;;;2.67;2.43;;;;;;;17.34;71.78;100193.63;5055010;28;20658;-80
2021/07/29 03:03:29;;;;;;;5.70;3.00;;;;;;;17.32;72.17;100191.06;5055144;28;20227;-80
2021/07/29 03:05:55;;;;;;;4.30;2.70;;;;;;;17.30;72.13;100197.59;5054325;28;20244;-80
2021/07/29 03:08:22;;;;;;;4.43;3.10;;;;;;;17.26;72.32;100194.34;5055061;28;20208;-80
2021/07/29 03:10:49;;;;;;;5.80;3.07;;;;;;;17.22;72.65;100201.03;5055413;28;20209;-80
2021/07/29 03:13:16;;;;;;;3.90;2.80;;;;;;;17.20;72.87;100211.09;5055073;28;20210;-80
2021/07/29 03:15:43;;;;;;;4.10;2.80;;;;;;;17.15;72.96;100209.88;5054102;28;20221;-80
2021/07/29 03:18:10;;;;;;;5.40;3.23;;;;;;;17.10;73.35;100202.25;5054307;28;20216;-80
2021/07/29 03:20:37;;;;;;;4.93;3.07;;;;;;;17.04;73.35;100201.97;5053481;28;20215;-80
2021/07/29 03:23:04;;;;;;;3.40;2.97;;;;;;;16.97;73.72;100199.06;5053308;28;20569;-80
2021/07/29 03:25:31;;;;;;;4.17;2.90;;;;;;;16.92;74.03;100206.72;5053196;28;20702;-80
2021/07/29 03:27:57;;;;;;;5.80;3.17;;;;;;;16.88;74.16;100202.63;5053122;28;20206;-80
2021/07/29 03:30:24;;;;;;;3.73;2.67;;;;;;;16.83;74.35;100178.03;5053190;28;20215;-80
2021/07/29 03:32:50;;;;;;;4.70;2.87;;;;;;;16.79;74.34;100176.63;5053502;28;20936;-81
2021/07/29 03:35:17;;;;;;;3.77;2.63;;;;;;;16.76;74.37;100183.16;5056623;28;20211;-80
2021/07/29 03:37:45;;;;;;;5.13;2.90;;;;;;;16.72;74.34;100186.28;5057226;28;20203;-81
2021/07/29 03:40:12;;;;;;;5.23;3.00;;;;;;;16.69;74.23;100186.56;5057152;28;20203;-80
2021/07/29 03:42:39;;;;;;;3.37;2.80;;;;;;;16.69;74.34;100189.25;5057295;28;20211;-80
2021/07/29 03:45:06;;;;;;;3.47;2.90;;;;;;;16.67;74.35;100197.47;5056762;28;20239;-80
2021/07/29 03:47:32;;;;;;;2.83;2.63;;;;;;;16.64;74.33;100211.22;5057303;28;20236;-80
2021/07/29 03:49:59;;;;;;;3.50;2.97;;;;;;;16.63;74.13;100204.16;5057568;28;20225;-80
2021/07/29 03:52:25;;;;;;;3.53;2.53;;;;;;;16.62;74.24;100203.28;5057481;28;20211;-80
2021/07/29 03:54:53;;;;;;;5.10;2.50;;;;;;;16.62;74.13;100200.59;5058119;28;20201;-81
2021/07/29 03:57:23;;;;;;;5.20;2.70;;;;;;;16.63;74.03;100205.00;5057473;28;20222;-81
2021/07/29 03:59:50;;;;;;;2.97;2.20;;;;;;;16.65;74.17;100208.41;5057114;28;20205;-81
2021/07/29 04:02:16;;;;;;;3.03;2.70;;;;;;;16.67;73.82;100211.75;5057746;28;20210;-81
2021/07/29 04:04:43;;;;;;;3.63;2.90;;;;;;;16.69;73.68;100203.56;5058003;28;20203;-78
2021/07/29 04:07:09;;;;;;;3.60;2.63;;;;;;;16.71;73.58;100209.63;5055395;28;20239;-77
2021/07/29 04:09:37;;;;;;;3.80;2.70;;;;;;;16.73;73.33;100204.13;5056335;28;20203;-78
2021/07/29 04:12:06;;;;;;;3.20;2.67;;;;;;;16.75;73.38;100205.66;5075422;28;20282;-77
2021/07/29 04:14:32;;;;;;;3.57;2.63;;;;;;;16.77;73.17;100210.91;5075343;28;20576;-77
2021/07/29 04:16:59;;;;;;;4.50;2.90;;;;;;;16.79;73.20;100223.22;5074979;28;20249;-78
2021/07/29 04:19:25;;;;;;;2.80;2.60;;;;;;;16.81;72.96;100220.38;5075373;28;20319;-77
2021/07/29 04:21:52;;;;;;;4.00;2.47;;;;;;;16.85;73.04;100219.06;5075191;28;20281;-77
2021/07/29 04:24:18;;;;;;;3.70;3.37;;;;;;;16.86;73.07;100228.81;5075058;28;20209;-77
2021/07/29 04:26:45;;;;;;;6.60;3.03;;;;;;;16.89;73.18;100228.53;5058117;28;20568;-77
2021/07/29 04:29:13;;;;;;;4.87;3.13;;;;;;;16.91;73.27;100231.94;5055600;28;20581;-77
2021/07/29 04:31:40;;;;;;;4.43;2.80;;;;;;;16.91;73.21;100232.78;5060821;28;20215;-77
2021/07/29 04:34:06;;;;;;;5.13;2.83;;;;;;;16.92;72.93;100230.94;5054708;28;20266;-77
2021/07/29 04:36:39;;;;;;;5.43;2.90;;;;;;;16.90;73.24;100232.91;5054864;28;20870;-77
2021/07/29 04:39:05;;;;;;;4.20;3.00;;;;;;;16.87;73.59;100226.00;5055354;28;20247;-77
2021/07/29 04:41:32;;;;;;;3.13;2.70;;;;;;;16.84;73.61;100230.84;5054833;28;20674;-77
2021/07/29 04:43:59;;;;;;;3.57;2.40;;;;;;;16.83;73.68;100224.63;5054801;28;20209;-77
2021/07/29 04:46:29;;;;;;;3.47;2.80;;;;;;;16.82;73.78;100227.44;5053945;28;20238;-77
2021/07/29 04:48:57;;;;;;;3.63;2.67;;;;;;;16.81;73.71;100221.22;5054715;28;20222;-77
2021/07/29 04:51:23;;;;;;;3.60;2.73;;;;;;;16.81;73.91;100205.09;5054825;28;20637;-78
2021/07/29 04:53:50;;;;;;;3.57;2.47;;;;;;;16.81;73.88;100217.69;5054205;28;20220;-77
2021/07/29 04:56:16;;;;;;;4.20;2.63;;;;;;;16.80;73.92;100224.91;5060936;28;20232;-78
2021/07/29 04:58:43;;;;;;;3.17;2.87;;;;;;;16.78;73.81;100223.34;5055516;28;20208;-78
2021/07/29 05:01:10;;;;;;;7.30;3.20;;;;;;;16.77;73.77;100224.34;5053784;28;20207;-78
2021/07/29 05:03:38;;;;;;;3.10;2.80;;;;;;;16.77;73.76;100221.66;5063241;28;20206;-77
2021/07/29 05:06:04;;;;;;;4.03;2.40;;;;;;;16.75;73.46;100224.50;5052579;28;20237;-77
2021/07/29 05:08:31;;;;;;;2.60;2.03;;;;;;;16.73;73.19;100226.47;5049264;28;20211;-78
2021/07/29 05:10:57;;;;;;;3.97;2.00;;;;;;;16.72;72.91;100223.94;5046145;28;20208;-78
2021/07/29 05:13:24;;;;;;;2.43;1.90;;;;;;;16.71;72.44;100222.22;5052215;28;20217;-78
2021/07/29 05:15:52;;;;;;;3.33;2.33;;;;;;;16.70;72.15;100220.53;5053882;28;20225;-78
2021/07/29 05:18:18;;;;;;;2.90;1.60;;;;;;;16.73;72.05;100220.25;5053922;28;20207;-82
2021/07/29 05:20:46;;;;;;;2.63;1.87;;;;;;;16.74;71.56;100221.94;5064524;28;20206;-81
2021/07/29 05:23:13;;;;;;;4.27;2.07;;;;;;;16.76;71.33;100212.75;5062880;28;20600;-81
2021/07/29 05:25:40;;;;;;;2.37;2.17;;;;;;;16.77;70.85;100222.50;5058495;28;20230;-81
2021/07/29 05:28:06;;;;;;;4.73;1.97;;;;;;;16.77;70.32;100219.81;5055485;28;20209;-81
2021/07/29 05:30:36;;;;;;;3.77;2.33;;;;;;;16.76;70.09;100225.34;5054362;28;20229;-81
2021/07/29 05:33:04;;;;;;;2.07;1.80;;;;;;;16.78;70.04;100223.34;5051996;28;20282;-81
2021/07/29 05:35:31;;;;;;;3.60;2.07;;;;;;;16.83;70.04;100221.06;5055794;28;20205;-81
2021/07/29 05:37:59;;;;;;;2.83;1.80;;;;;;;16.89;69.99;100223.16;5051095;28;20204;-81
2021/07/29 05:40:26;;;;;;;3.00;1.90;;;;;;;16.96;69.43;100218.88;5055024;28;20252;-81
2021/07/29 05:42:52;;;;;;;2.00;1.80;;;;;;;17.03;69.27;100225.34;5061194;28;20208;-81
2021/07/29 05:45:19;;;;;;;2.20;2.00;;;;;;;17.13;68.92;100228.84;5059366;28;20675;-81
2021/07/29 05:47:45;;;;;;;2.03;1.83;;;;;;;17.24;68.79;100217.88;5055984;28;20223;-81
2021/07/29 05:50:12;;;;;;;4.63;2.10;;;;;;;17.39;68.64;100228.97;5056143;28;20211;-81
2021/07/29 05:52:38;;;;;;;2.63;1.80;;;;;;;17.55;68.31;100231.03;5056465;28;20203;-81
2021/07/29 05:55:07;;;;;;;2.27;1.70;;;;;;;17.69;67.83;100238.63;5069884;28;20271;-81
2021/07/29 05:57:34;;;;;;;1.60;1.50;;;;;;;17.76;67.04;100230.75;5059149;28;20220;-81
2021/07/29 06:00:01;;;;;;;3.27;1.53;;;;;;;17.83;66.62;100230.00;5053357;28;20208;-81
2021/07/29 06:02:27;;;;;;;2.07;1.57;;;;;;;17.85;66.14;100228.00;5060315;28;20218;-81
2021/07/29 06:04:54;;;;;;;2.33;1.80;;;;;;;17.84;65.69;100237.06;5058472;28;20200;-82
2021/07/29 06:07:21;;;;;;;1.60;1.50;;;;;;;17.84;65.60;100241.63;5060982;28;20247;-80
2021/07/29 06:09:48;;;;;;;4.43;1.70;;;;;;;17.83;65.28;100237.22;5063484;28;20206;-80
2021/07/29 06:12:17;;;;;;;3.97;1.70;;;;;;;17.79;64.86;100233.13;5066158;28;20290;-80
2021/07/29 06:14:43;;;;;;;1.80;1.50;;;;;;;17.75;64.84;100235.28;5053703;28;20208;-81
2021/07/29 06:17:10;;;;;;;2.93;1.53;;;;;;;17.74;64.88;100232.75;5047980;28;20234;-81
2021/07/29 06:19:39;;;;;;;3.73;1.60;;;;;;;17.74;64.79;100238.97;5052322;28;20291;-80
2021/07/29 06:22:06;;;;;;;1.60;1.40;;;;;;;17.73;64.78;100236.47;5048731;28;20272;-80
2021/07/29 06:24:32;;;;;;;2.90;1.70;;;;;;;17.74;64.73;100247.06;5059105;28;20208;-80
2021/07/29 06:26:59;;;;;;;2.57;1.30;;;;;;;17.77;64.84;100244.06;5062247;28;20228;-80
2021/07/29 06:29:27;;;;;;;2.37;1.30;;;;;;;17.81;64.74;100242.75;5056472;28;20211;-81
2021/07/29 06:31:54;;;;;;;2.73;1.50;;;;;;;17.84;64.64;100241.63;5057517;28;20215;-80
2021/07/29 06:34:20;;;;;;;2.50;1.60;;;;;;;17.86;64.69;100240.47;5065112;28;20217;-80
2021/07/29 06:36:47;;;;;;;3.07;1.60;;;;;;;17.89;64.65;100248.25;5060165;28;20234;-80
2021/07/29 06:39:13;;;;;;;4.10;1.70;;;;;;;17.92;64.68;100247.91;5061478;28;20216;-80
2021/07/29 06:41:40;;;;;;;2.40;1.70;;;;;;;17.95;64.50;100247.63;5055077;28;20215;-80
2021/07/29 06:44:07;;;;;;;2.97;1.60;;;;;;;17.98;64.63;100257.25;5061054;28;20208;-80
2021/07/29 06:46:38;;;;;;;3.07;1.57;;;;;;;18.00;64.28;100250.69;5068649;28;20701;-80
2021/07/29 06:49:05;;;;;;;2.93;1.67;;;;;;;18.00;64.15;100253.41;5055024;28;20212;-80
2021/07/29 06:51:31;;;;;;;2.50;1.30;;;;;;;17.99;63.73;100254.41;5059893;28;20231;-80
2021/07/29 06:53:59;;;;;;;2.67;1.30;;;;;;;18.00;63.73;100261.47;5058943;28;20196;-80
2021/07/29 06:56:25;;;;;;;5.40;2.40;;;;;;;18.05;63.43;100258.31;5058405;28;20220;-80
2021/07/29 06:58:52;;;;;;;3.10;1.60;;;;;;;18.11;63.16;100262.22;5057831;28;20204;-80
2021/07/29 07:01:19;;;;;;;2.33;1.47;;;;;;;18.18;63.12;100257.94;5054499;28;20584;-80
2021/07/29 07:03:48;;;;;;;3.63;1.73;;;;;;;18.28;62.85;100259.53;5062916;28;20206;-80
2021/07/29 07:06:14;;;;;;;2.10;1.70;;;;;;;18.34;62.46;100258.91;5062474;28;20260;-80
2021/07/29 07:08:41;;;;;;;3.00;1.60;;;;;;;18.51;62.59;100256.31;5063655;28;20669;-80
2021/07/29 07:11:10;;;;;;;1.73;1.23;;;;;;;18.75;62.67;100255.69;5067275;28;20207;-80
2021/07/29 07:13:36;;;;;;;4.07;1.40;;;;;;;18.96;61.23;100256.16;5067117;28;20205;-80
2021/07/29 07:16:03;;;;;;;4.17;1.27;;;;;;;19.16;60.22;100260.31;5065211;28;20218;-81
2021/07/29 07:18:30;;;;;;;2.40;1.30;;;;;;;19.36;59.47;100266.28;5060730;28;20206;-81
2021/07/29 07:21:05;;;;;;;3.90;1.70;;;;;;;19.54;59.14;100269.75;5060327;28;20218;-82
2021/07/29 07:23:32;;;;;;;3.13;1.30;;;;;;;19.69;58.54;100264.59;5057456;28;20206;-81
2021/07/29 07:25:59;;;;;;;2.10;1.10;;;;;;;19.87;58.07;100268.00;5059903;28;20231;-80
2021/07/29 07:28:25;;;;;;;3.30;1.63;;;;;;;20.02;57.03;100269.03;5066915;28;20232;-81
2021/07/29 07:30:52;;;;;;;2.90;1.33;;;;;;;20.15;56.65;100265.81;5066558;28;20211;-81
2021/07/29 07:33:18;;;;;;;2.70;1.37;;;;;;;20.23;55.60;100256.88;5062466;28;20196;-81
2021/07/29 07:35:45;;;;;;;3.83;1.40;;;;;;;20.22;55.17;100264.16;5067319;28;20225;-81
2021/07/29 07:38:13;;;;;;;2.40;1.27;;;;;;;20.20;55.19;100254.50;5058300;28;20205;-81
2021/07/29 07:40:39;;;;;;;2.47;1.23;;;;;;;20.22;55.19;100261.44;5057912;28;20205;-81
2021/07/29 07:43:06;;;;;;;3.37;1.37;;;;;;;20.22;55.22;100261.44;5070139;28;20306;-81
2021/07/29 07:45:33;;;;;;;2.13;1.10;;;;;;;20.31;54.77;100255.00;5063914;28;20210;-81
2021/07/29 07:47:59;;;;;;;3.10;1.57;;;;;;;20.34;54.38;100257.38;5058772;28;20231;-81
2021/07/29 07:50:26;;;;;;;2.77;1.40;;;;;;;20.34;53.35;100248.41;5052343;28;20208;-81
2021/07/29 07:52:52;;;;;;;2.67;1.47;;;;;;;20.28;53.59;100252.63;5061653;28;20203;-81
2021/07/29 07:55:20;;;;;;;4.13;1.40;;;;;;;20.23;53.17;100252.31;5058185;28;20220;-81
2021/07/29 07:57:47;;;;;;;2.53;1.60;;;;;;;20.18;53.43;100267.34;5065777;28;20209;-81
2021/07/29 08:00:15;;;;;;;3.90;1.43;;;;;;;20.13;53.64;100259.72;5063689;28;20207;-81
2021/07/29 08:02:41;;;;;;;3.93;1.70;;;;;;;20.09;53.67;100258.38;5070704;28;20646;-81
2021/07/29 08:05:09;;;;;;;4.23;1.80;;;;;;;20.07;53.90;100250.44;5063460;28;20649;-81
2021/07/29 08:07:35;;;;;;;3.70;1.83;;;;;;;20.10;53.99;100254.66;5071819;28;20233;-81
2021/07/29 08:10:02;;;;;;;3.87;1.73;;;;;;;20.11;53.64;100245.53;5056855;28;20206;-81
2021/07/29 08:12:29;;;;;;;2.43;1.50;;;;;;;20.08;52.78;100253.97;5060559;28;20209;-81
2021/07/29 08:14:56;;;;;;;4.10;1.87;;;;;;;20.03;51.63;100257.22;5061562;28;20295;-81
2021/07/29 08:17:22;;;;;;;2.47;1.77;;;;;;;19.99;51.70;100257.69;5059707;28;20707;-81
2021/07/29 08:19:49;;;;;;;9.90;1.60;;;;;;;19.98;52.14;100247.91;5057064;28;20213;-81
2021/07/29 08:22:16;;;;;;;2.70;1.53;;;;;;;20.02;52.11;100268.19;5058766;28;20211;-81
2021/07/29 08:24:42;;;;;;;3.10;1.60;;;;;;;20.02;52.01;100269.03;5055375;28;20258;-80
2021/07/29 08:27:09;;;;;;;3.37;1.57;;;;;;;19.99;51.81;100261.25;5057319;28;20615;-80
2021/07/29 08:29:37;;;;;;;1.67;1.57;;;;;;;20.07;52.03;100255.00;5057694;28;20200;-80
2021/07/29 08:32:04;;;;;;;3.03;1.40;;;;;;;20.22;52.42;100252.50;5058253;28;20589;-80
2021/07/29 08:34:31;;;;;;;4.13;1.63;;;;;;;20.40;52.21;100251.34;5054728;28;20207;-80
2021/07/29 08:36:57;;;;;;;3.50;1.77;;;;;;;20.53;51.69;100252.66;5060597;28;20220;-80
2021/07/29 08:39:24;;;;;;;2.80;1.50;;;;;;;20.51;51.11;100252.84;5063979;28;20216;-81
2021/07/29 08:41:51;;;;;;;2.50;1.63;;;;;;;20.47;50.87;100256.03;5063883;28;20201;-80
2021/07/29 08:44:18;;;;;;;4.70;1.60;;;;;;;20.37;50.94;100261.66;5071059;28;20206;-80
2021/07/29 08:46:46;;;;;;;3.60;1.50;;;;;;;20.35;51.45;100259.06;5061552;28;20239;-80
2021/07/29 08:49:14;;;;;;;2.47;1.20;;;;;;;20.38;51.29;100249.81;5062557;28;20238;-80
2021/07/29 08:51:41;;;;;;;3.40;1.20;;;;;;;20.48;50.27;100252.31;5053534;28;20215;-81
2021/07/29 08:54:11;;;;;;;3.63;1.60;;;;;;;20.60;49.02;100248.28;5059154;28;20209;-81
2021/07/29 08:56:38;;;;;;;1.37;1.27;;;;;;;20.78;48.53;100257.03;5053676;28;20712;-80
2021/07/29 08:59:06;;;;;;;2.83;1.40;;;;;;;20.94;47.77;100253.44;5054463;28;20210;-81
2021/07/29 09:01:40;;;;;;;2.27;1.13;;;;;;;21.17;47.79;100232.69;5058646;28;20210;-81
2021/07/29 09:04:12;;;;;;;2.33;1.20;;;;;;;21.29;46.87;100252.16;5057477;28;20651;-81
2021/07/29 09:06:53;;;;;;;2.27;1.30;;;;;;;21.32;46.55;100247.22;5060365;28;20235;-80
2021/07/29 09:09:35;;;;;;;3.13;1.07;;;;;;;21.39;46.44;100260.91;5051115;28;20800;-81
2021/07/29 09:12:14;;;;;;;2.63;1.07;;;;;;;21.48;45.65;100257.16;5052289;28;20209;-81
2021/07/29 09:14:41;;;;;;;3.55;1.33;;;;;;;21.50;44.86;100259.69;5059323;28;20775;-81
2021/07/29 09:17:08;;;;;;;2.50;1.00;;;;;;;21.52;44.53;100252.22;5062250;28;20220;-81
2021/07/29 09:19:37;;;;;;;3.00;1.08;;;;;;;21.55;43.94;100257.28;5060422;28;20228;-80
2021/07/29 09:22:09;;;;;;;3.65;1.30;;;;;;;21.53;44.21;100253.91;5063055;28;20284;-80
2021/07/29 09:24:36;;;;;;;1.83;1.02;;;;;;;21.55;44.46;100241.00;5060574;28;20206;-81
2021/07/29 09:27:03;;;;;;;1.40;1.10;;;;;;;21.55;44.74;100251.84;5052397;28;20584;-80
2021/07/29 09:29:30;;;;;;;3.07;1.20;;;;;;;21.55;44.74;100251.84;5052248;28;20212;-81
2021/07/29 09:32:06;;;;;;;2.63;1.40;;;;;;;21.59;44.95;100258.63;5048254;28;20209;-81
2021/07/29 09:34:49;;;;;;;3.50;1.17;;;;;;;21.72;44.85;100248.03;5049451;28;20201;-81
2021/07/29 09:37:16;;;;;;;2.88;1.30;;;;;;;21.82;44.40;100241.38;5060495;28;20225;-81
2021/07/29 09:39:43;;;;;;;2.45;1.38;;;;;;;21.93;43.58;100242.81;5063630;28;20248;-81
2021/07/29 09:42:18;;;;;;;1.77;1.10;;;;;;;21.97;43.52;100240.59;5061805;28;20207;-81
2021/07/29 09:44:47;;;;;;;2.65;1.27;;;;;;;22.01;43.64;100236.53;5061871;28;20271;-81
2021/07/29 09:47:14;;;;;;;3.75;0.98;;;;;;;22.02;43.20;100244.50;5062187;28;20752;-81
2021/07/29 09:49:41;;;;;;;2.35;1.40;;;;;;;22.02;43.19;100238.22;5065507;28;20650;-81
2021/07/29 09:52:09;;;;;;;1.48;1.17;;;;;;;22.08;43.58;100241.03;5064073;28;20650;-81
2021/07/29 09:54:40;;;;;;;4.25;1.25;;;;;;;22.16;43.14;100240.97;5058815;28;20206;-80
2021/07/29 09:57:08;;;;;;;5.10;1.30;;;;;;;22.21;42.90;100243.16;5059028;28;20751;-81
2021/07/29 09:59:34;;;;;;;1.75;0.90;;;;;;;22.23;42.65;100242.94;5065744;28;20207;-81
2021/07/29 10:02:02;;;;;;;2.33;0.80;;;;;;;22.21;42.30;100247.75;5057278;28;20211;-81
2021/07/29 10:07:08;;;;;;;4.32;1.13;;;;;;;22.16;41.98;100249.13;4986522;28;20234;-74
2021/07/29 10:09:45;;;;;;;3.13;1.15;;;;;;;22.15;42.29;100243.88;5001556;28;20202;-73
2021/07/29 10:12:17;;;;;;;2.22;1.10;;;;;;;22.17;42.06;100248.09;4997367;28;20665;-74
2021/07/29 10:14:52;;;;;;;2.88;1.10;;;;;;;22.14;41.89;100253.03;4990552;28;20211;-73
2021/07/29 10:18:02;;;;;;;2.92;0.90;;;;;;;22.11;42.56;100254.25;4991179;28;20684;-74
2021/07/29 10:20:32;;;;;;;3.85;1.10;;;;;;;22.09;42.65;100250.84;5034102;23;20229;-79
2021/07/29 10:23:27;;;;;;;2.65;0.88;;;;;;;22.07;42.33;100260.19;5047524;28;20201;-79
2021/07/29 10:26:06;;;;;;;3.75;0.90;;;;;;;22.07;41.49;100255.63;5023386;28;20325;-79
2021/07/29 10:28:38;;;;;;;2.47;0.90;;;;;;;22.14;41.66;100255.75;5025907;28;20233;-79
2021/07/29 10:31:05;;;;;;;2.88;0.90;;;;;;;22.29;41.80;100261.22;5032861;28;20217;-79
2021/07/29 10:33:32;;;;;;;2.17;1.10;;;;;;;22.43;40.72;100254.97;5032684;28;20213;-79
2021/07/29 10:35:59;;;;;;;2.35;0.95;;;;;;;22.55;41.02;100258.97;5032888;28;20691;-79
2021/07/29 10:38:50;;;;;;;2.95;0.80;;;;;;;22.71;40.79;100261.53;5047161;28;20663;-78
2021/07/29 10:41:44;;;;;;;2.47;1.15;;;;;;;22.81;39.98;100267.53;5031721;28;20209;-78
2021/07/29 10:44:46;;;;;;;1.63;0.90;;;;;;;22.91;39.42;100259.16;5035434;28;20670;-78
2021/07/29 10:47:17;;;;;;;2.15;0.88;;;;;;;23.00;39.30;100257.16;5036586;28;20758;-79
2021/07/29 10:50:17;;;;;;;2.53;1.10;;;;;;;23.16;39.43;100260.53;5037333;28;20249;-79
2021/07/29 10:52:49;;;;;;;2.42;1.00;;;;;;;23.33;38.79;100249.47;5046617;28;20208;-80
2021/07/29 10:55:17;;;;;;;4.47;1.25;;;;;;;23.40;38.40;100253.97;5036476;28;20250;-79
2021/07/29 10:57:59;;;;;;;2.75;0.82;;;;;;;23.46;38.04;100258.66;5037291;28;20205;-79
2021/07/29 11:00:25;;;;;;;4.65;1.10;;;;;;;23.51;37.81;100256.22;5037842;28;20202;-79
2021/07/29 11:02:53;;;;;;;2.05;0.93;;;;;;;23.53;37.50;100262.31;5037390;28;20205;-78
2021/07/29 11:05:27;;;;;;;4.00;0.80;;;;;;;23.57;37.28;100248.34;5036398;28;20239;-79
2021/07/29 11:07:53;;;;;;;3.88;0.80;;;;;;;23.59;37.59;100249.00;5038089;28;20210;-79
2021/07/29 11:10:27;;;;;;;2.03;0.90;;;;;;;23.73;37.16;100239.94;5049483;28;20206;-79
2021/07/29 11:12:54;;;;;;;2.75;0.70;;;;;;;23.83;36.84;100246.75;5036662;28;20197;-79
2021/07/29 11:15:22;;;;;;;2.72;0.82;;;;;;;23.93;34.89;100256.50;5036504;28;20217;-80
2021/07/29 11:17:48;;;;;;;1.85;0.75;;;;;;;23.94;33.90;100247.28;5035655;28;20198;-77
2021/07/29 11:20:26;;;;;;;0.95;0.70;;;;;;;23.92;34.09;100249.34;5040541;28;20425;-78
2021/07/29 11:22:52;;;;;;;3.05;0.82;;;;;;;23.95;34.41;100255.25;5043152;28;20208;-78
2021/07/29 11:25:19;;;;;;;4.72;1.23;;;;;;;24.01;34.61;100224.53;5049655;28;20236;-79
2021/07/29 11:27:45;;;;;;;3.05;1.00;;;;;;;24.08;34.87;100249.94;5035584;28;20714;-78
2021/07/29 11:30:13;;;;;;;1.70;0.75;;;;;;;24.11;34.80;100255.00;5035357;28;20211;-78
2021/07/29 11:32:43;;;;;;;2.00;0.80;;;;;;;24.07;34.05;100261.03;5035758;28;20207;-78